Time;durP1;ratioP1;P1;durP2;ratioP2;P2;SDS_P1;SDS_P2;PMS_P1;PMS_P2;Temp;Humidity;BMP_temperature;BMP_pressure;BME280_temperature;BME280_humidity;BME280_pressure;Samples;Min_cycle;Max_cycle;Signal;HPM_P1;HPM_P2
2021/06/20 00:00:38;;;;;;;;;;;16.40;99.90;;;;;;5094767;28;20425;-75
2021/06/20 00:03:04;;;;;;;;;;;16.50;99.90;;;;;;5095421;28;19931;-76
2021/06/20 00:05:42;;;;;;;;;;;16.40;99.90;;;;;;5095255;28;19908;-76
2021/06/20 00:08:07;;;;;;;;;;;16.40;99.90;;;;;;5094552;28;19931;-76
2021/06/20 00:10:35;;;;;;;;;;;16.50;99.90;;;;;;5095335;28;19909;-76
2021/06/20 00:13:00;;;;;;;;;;;16.50;99.90;;;;;;5095503;28;19909;-76
2021/06/20 00:15:29;;;;;;;;;;;16.40;99.90;;;;;;5094530;28;20015;-76
2021/06/20 00:17:55;;;;;;;;;;;16.40;99.90;;;;;;5095040;28;20326;-76
2021/06/20 00:20:21;;;;;;;;;;;16.40;99.90;;;;;;5095317;28;19908;-76
2021/06/20 00:22:47;;;;;;;;;;;16.40;99.90;;;;;;5094608;28;19908;-76
2021/06/20 00:25:14;;;;;;;;;;;16.40;99.90;;;;;;5094827;28;20309;-76
2021/06/20 00:27:40;;;;;;;;;;;16.40;99.90;;;;;;5094537;28;19909;-76
2021/06/20 00:30:09;;;;;;;;;;;16.50;99.90;;;;;;5093992;28;19909;-76
2021/06/20 00:32:35;;;;;;;;;;;16.40;99.90;;;;;;5094547;28;19908;-76
2021/06/20 00:35:00;;;;;;;;;;;16.40;99.90;;;;;;5094780;28;19915;-77
2021/06/20 00:37:26;;;;;;;;;;;16.40;99.90;;;;;;5093641;28;19924;-76
2021/06/20 00:39:51;;;;;;;;;;;16.40;99.90;;;;;;5094639;28;20355;-76
2021/06/20 00:42:17;;;;;;;;;;;16.40;99.90;;;;;;5094742;28;20014;-75
2021/06/20 00:44:46;;;;;;;;;;;16.30;99.90;;;;;;5094134;28;19974;-75
2021/06/20 00:47:12;;;;;;;;;;;16.40;99.90;;;;;;5094553;28;20457;-75
2021/06/20 00:49:38;;;;;;;;;;;16.30;99.90;;;;;;5094592;28;20002;-74
2021/06/20 00:52:04;;;;;;;;;;;16.40;99.90;;;;;;5093544;28;20020;-75
2021/06/20 00:54:29;;;;;;;;;;;16.30;99.90;;;;;;5094354;28;19908;-74
2021/06/20 00:56:55;;;;;;;;;;;16.30;99.90;;;;;;5093400;28;20382;-74
2021/06/20 00:59:20;;;;;;;;;;;16.30;99.90;;;;;;5094274;28;19915;-74
2021/06/20 01:01:46;;;;;;;;;;;16.30;99.90;;;;;;5094142;28;19908;-73
2021/06/20 01:04:11;;;;;;;;;;;16.30;99.90;;;;;;5093224;28;19948;-74
2021/06/20 01:06:37;;;;;;;;;;;16.30;99.90;;;;;;5093912;28;19915;-73
2021/06/20 01:09:03;;;;;;;;;;;16.30;99.90;;;;;;5094131;28;20377;-75
2021/06/20 01:11:29;;;;;;;;;;;16.30;99.90;;;;;;5093310;28;19908;-76
2021/06/20 01:13:54;;;;;;;;;;;16.30;99.90;;;;;;5094190;28;19908;-75
2021/06/20 01:16:20;;;;;;;;;;;16.40;99.90;;;;;;5093884;28;19916;-77
2021/06/20 01:18:45;;;;;;;;;;;16.30;99.90;;;;;;5091994;28;19935;-76
2021/06/20 01:21:11;;;;;;;;;;;16.30;99.90;;;;;;5093913;28;19983;-75
2021/06/20 01:23:36;;;;;;;;;;;16.30;99.90;;;;;;5094027;28;19908;-75
2021/06/20 01:26:02;;;;;;;;;;;16.40;99.90;;;;;;5093285;28;20371;-75
2021/06/20 01:28:29;;;;;;;;;;;16.40;99.90;;;;;;5093921;28;19931;-75
2021/06/20 01:30:59;;;;;;;;;;;16.40;99.90;;;;;;5093868;28;20285;-75
2021/06/20 01:33:26;;;;;;;;;;;16.40;99.90;;;;;;5092988;28;20019;-75
2021/06/20 01:35:51;;;;;;;;;;;16.40;99.90;;;;;;5093525;28;19916;-75
2021/06/20 01:38:17;;;;;;;;;;;16.50;99.90;;;;;;5093316;28;19944;-75
2021/06/20 01:40:42;;;;;;;;;;;16.50;99.90;;;;;;5092738;28;19919;-75
2021/06/20 01:43:08;;;;;;;;;;;16.50;99.90;;;;;;5093638;28;19944;-75
2021/06/20 01:45:33;;;;;;;;;;;16.70;99.90;;;;;;5093583;28;20320;-74
2021/06/20 01:47:59;;;;;;;;;;;16.70;99.90;;;;;;5092826;28;19909;-75
2021/06/20 01:50:25;;;;;;;;;;;16.80;99.90;;;;;;5093474;28;19908;-75
2021/06/20 01:53:03;;;;;;;;;;;16.80;99.90;;;;;;5093446;28;20387;-74
2021/06/20 01:55:28;;;;;;;;;;;16.80;99.90;;;;;;5093571;28;19995;-74
2021/06/20 01:57:54;;;;;;;;;;;16.60;99.90;;;;;;5093515;28;20508;-75
2021/06/20 02:00:19;;;;;;;;;;;16.50;99.90;;;;;;5092527;28;19912;-74
2021/06/20 02:02:45;;;;;;;;;;;16.30;99.90;;;;;;5093457;28;20368;-74
2021/06/20 02:05:11;;;;;;;;;;;16.20;99.90;;;;;;5093404;28;20262;-74
2021/06/20 02:07:37;;;;;;;;;;;16.20;99.90;;;;;;5092560;28;19937;-74
2021/06/20 02:10:04;;;;;;;;;;;16.00;99.90;;;;;;5093044;28;19943;-74
2021/06/20 02:12:29;;;;;;;;;;;15.90;99.90;;;;;;5093075;28;19908;-74
2021/06/20 02:14:55;;;;;;;;;;;15.80;99.90;;;;;;5092328;28;20346;-74
2021/06/20 02:17:20;;;;;;;;;;;15.80;99.90;;;;;;5096786;28;19916;-74
2021/06/20 02:19:46;;;;;;;;;;;15.70;99.90;;;;;;5097280;28;20261;-74
2021/06/20 02:22:12;;;;;;;;;;;15.60;99.90;;;;;;5096481;28;20201;-74
2021/06/20 02:24:37;;;;;;;;;;;15.60;99.90;;;;;;5097076;28;20421;-74
2021/06/20 02:27:03;;;;;;;;;;;15.60;99.90;;;;;;5096892;28;19912;-74
2021/06/20 02:29:28;;;;;;;;;;;15.60;99.90;;;;;;5096271;28;19956;-74
2021/06/20 02:31:53;;;;;;;;;;;15.50;99.90;;;;;;5097113;28;19960;-74
2021/06/20 02:34:19;;;;;;;;;;;15.50;99.90;;;;;;5097558;28;19946;-74
2021/06/20 02:36:46;;;;;;;;;;;15.50;99.90;;;;;;5096006;28;19927;-74
2021/06/20 02:39:12;;;;;;;;;;;15.50;99.90;;;;;;5097074;28;19908;-74
2021/06/20 02:41:37;;;;;;;;;;;15.10;99.90;;;;;;5096974;28;19915;-74
2021/06/20 02:44:03;;;;;;;;;;;15.40;99.90;;;;;;5096196;28;20385;-74
2021/06/20 02:46:28;;;;;;;;;;;15.40;99.90;;;;;;5096633;28;20268;-74
2021/06/20 02:48:54;;;;;;;;;;;15.50;99.90;;;;;;5096831;28;19912;-74
2021/06/20 02:51:19;;;;;;;;;;;15.50;99.90;;;;;;5096035;28;19908;-74
2021/06/20 02:53:44;;;;;;;;;;;15.40;99.90;;;;;;5096713;28;19908;-74
2021/06/20 02:56:10;;;;;;;;;;;15.50;99.90;;;;;;5096613;28;19916;-74
2021/06/20 02:58:35;;;;;;;;;;;15.50;99.90;;;;;;5095996;28;19908;-74
2021/06/20 03:01:01;;;;;;;;;;;15.50;99.90;;;;;;5096268;28;19914;-74
2021/06/20 03:03:26;;;;;;;;;;;15.40;99.90;;;;;;5095707;28;19908;-73
2021/06/20 03:05:52;;;;;;;;;;;15.40;99.90;;;;;;5096327;28;19912;-74
2021/06/20 03:08:17;;;;;;;;;;;15.50;99.90;;;;;;5096310;28;19908;-73
2021/06/20 03:10:42;;;;;;;;;;;15.50;99.90;;;;;;5095730;28;19957;-74
2021/06/20 03:13:09;;;;;;;;;;;15.50;99.90;;;;;;5096441;28;20283;-75
2021/06/20 03:15:37;;;;;;;;;;;15.50;99.90;;;;;;5096192;28;19912;-74
2021/06/20 03:18:03;;;;;;;;;;;15.50;99.90;;;;;;5095410;28;19916;-74
2021/06/20 03:20:28;;;;;;;;;;;15.50;99.90;;;;;;5096057;28;19908;-74
2021/06/20 03:22:53;;;;;;;;;;;15.60;99.90;;;;;;5096000;28;20292;-73
2021/06/20 03:25:19;;;;;;;;;;;15.60;99.90;;;;;;5095123;28;19931;-74
2021/06/20 03:27:44;;;;;;;;;;;15.50;99.90;;;;;;5095854;28;19977;-74
2021/06/20 03:30:10;;;;;;;;;;;15.60;99.90;;;;;;5095641;28;19920;-74
2021/06/20 03:32:35;;;;;;;;;;;15.60;99.90;;;;;;5095198;28;19912;-74
2021/06/20 03:35:01;;;;;;;;;;;15.60;99.90;;;;;;5095875;28;20352;-76
2021/06/20 03:37:27;;;;;;;;;;;15.60;99.90;;;;;;5095609;28;19924;-74
2021/06/20 03:39:52;;;;;;;;;;;15.60;99.90;;;;;;5094907;28;19912;-74
2021/06/20 03:42:18;;;;;;;;;;;15.50;99.90;;;;;;5095666;28;19908;-74
2021/06/20 03:44:43;;;;;;;;;;;15.60;99.90;;;;;;5095674;28;19908;-75
2021/06/20 03:47:10;;;;;;;;;;;15.60;99.90;;;;;;5094737;28;19999;-74
2021/06/20 03:49:35;;;;;;;;;;;15.60;99.90;;;;;;5095546;28;20370;-74
2021/06/20 03:52:01;;;;;;;;;;;15.70;99.90;;;;;;5095725;28;19994;-74
2021/06/20 03:54:26;;;;;;;;;;;15.70;99.90;;;;;;5094783;28;19908;-73
2021/06/20 03:56:53;;;;;;;;;;;15.70;99.90;;;;;;5095653;28;20322;-73
2021/06/20 03:59:18;;;;;;;;;;;15.80;99.90;;;;;;5095334;28;20237;-74
2021/06/20 04:01:44;;;;;;;;;;;15.80;99.90;;;;;;5094306;28;19999;-74
2021/06/20 04:04:09;;;;;;;;;;;15.80;99.90;;;;;;5095187;28;19916;-74
2021/06/20 04:06:35;;;;;;;;;;;15.80;99.90;;;;;;5095308;28;19914;-74
2021/06/20 04:09:01;;;;;;;;;;;15.90;99.90;;;;;;5094920;28;19908;-74
2021/06/20 04:11:26;;;;;;;;;;;15.90;99.90;;;;;;5095336;28;20371;-74
2021/06/20 04:13:52;;;;;;;;;;;15.90;99.90;;;;;;5094502;28;20006;-75
2021/06/20 04:16:18;;;;;;;;;;;15.90;99.90;;;;;;5095027;28;19957;-75
2021/06/20 04:18:43;;;;;;;;;;;15.90;99.90;;;;;;5095098;28;19908;-74
2021/06/20 04:21:09;;;;;;;;;;;15.90;99.90;;;;;;5094259;28;19942;-73
2021/06/20 04:23:34;;;;;;;;;;;15.90;99.90;;;;;;5094929;28;20316;-74
2021/06/20 04:25:59;;;;;;;;;;;15.90;99.90;;;;;;5094898;28;19940;-73
2021/06/20 04:28:25;;;;;;;;;;;15.90;99.90;;;;;;5094278;28;19949;-74
2021/06/20 04:30:56;;;;;;;;;;;15.90;99.90;;;;;;5094919;28;19908;-74
2021/06/20 04:33:21;;;;;;;;;;;16.00;99.90;;;;;;5094946;28;20000;-73
2021/06/20 04:35:47;;;;;;;;;;;16.00;99.90;;;;;;5093875;28;19912;-73
2021/06/20 04:38:12;;;;;;;;;;;16.00;99.90;;;;;;5094064;28;20293;-74
2021/06/20 04:40:39;;;;;;;;;;;16.00;99.90;;;;;;5094376;28;19908;-74
2021/06/20 04:43:08;;;;;;;;;;;16.00;99.90;;;;;;5093743;28;19981;-73
2021/06/20 04:45:33;;;;;;;;;;;16.00;99.90;;;;;;5094519;28;19912;-75
2021/06/20 04:47:59;;;;;;;;;;;16.10;99.90;;;;;;5094627;28;19954;-74
2021/06/20 04:50:24;;;;;;;;;;;16.20;99.90;;;;;;5093698;28;19908;-75
2021/06/20 04:52:50;;;;;;;;;;;16.20;99.90;;;;;;5094427;28;19908;-73
2021/06/20 04:55:15;;;;;;;;;;;16.40;99.90;;;;;;5094145;28;19908;-74
2021/06/20 04:57:42;;;;;;;;;;;16.50;99.90;;;;;;5093196;28;19968;-74
2021/06/20 05:00:08;;;;;;;;;;;16.60;99.90;;;;;;5093918;28;19908;-74
2021/06/20 05:02:34;;;;;;;;;;;16.60;99.90;;;;;;5094289;28;20374;-73
2021/06/20 05:05:00;;;;;;;;;;;16.60;99.90;;;;;;5093507;28;19939;-74
2021/06/20 05:07:25;;;;;;;;;;;16.60;99.90;;;;;;5094076;28;19917;-73
2021/06/20 05:09:51;;;;;;;;;;;16.60;99.90;;;;;;5094031;28;19915;-73
2021/06/20 05:12:16;;;;;;;;;;;16.50;99.90;;;;;;5093305;28;19987;-73
2021/06/20 05:14:43;;;;;;;;;;;16.50;99.90;;;;;;5093956;28;19912;-73
2021/06/20 05:17:09;;;;;;;;;;;16.50;99.90;;;;;;5093061;28;19927;-73
2021/06/20 05:19:34;;;;;;;;;;;16.50;99.90;;;;;;5093823;28;20295;-73
2021/06/20 05:21:59;;;;;;;;;;;16.50;99.90;;;;;;5093605;28;19915;-73
2021/06/20 05:24:25;;;;;;;;;;;16.70;99.90;;;;;;5092862;28;19916;-73
2021/06/20 05:26:51;;;;;;;;;;;16.60;99.90;;;;;;5093445;28;20360;-73
2021/06/20 05:29:16;;;;;;;;;;;16.60;99.90;;;;;;5093673;28;20279;-73
2021/06/20 05:31:42;;;;;;;;;;;16.70;99.90;;;;;;5092774;28;20007;-72
2021/06/20 05:34:07;;;;;;;;;;;16.70;99.90;;;;;;5093544;28;19908;-72
2021/06/20 05:36:33;;;;;;;;;;;16.60;99.90;;;;;;5093332;28;19963;-73
2021/06/20 05:38:58;;;;;;;;;;;16.70;99.90;;;;;;5092690;28;20256;-72
2021/06/20 05:41:24;;;;;;;;;;;16.80;99.90;;;;;;5093324;28;19934;-75
2021/06/20 05:43:49;;;;;;;;;;;16.80;99.90;;;;;;5093190;28;19927;-73
2021/06/20 05:46:17;;;;;;;;;;;16.80;99.90;;;;;;5092767;28;19908;-74
2021/06/20 05:48:43;;;;;;;;;;;16.80;99.90;;;;;;5093342;28;19920;-73
2021/06/20 05:51:08;;;;;;;;;;;16.80;99.90;;;;;;5092748;28;19908;-73
2021/06/20 05:53:34;;;;;;;;;;;16.80;99.90;;;;;;5092566;28;20360;-72
2021/06/20 05:55:59;;;;;;;;;;;16.80;99.90;;;;;;5093091;28;20019;-72
2021/06/20 05:58:25;;;;;;;;;;;16.80;99.90;;;;;;5093063;28;20352;-73
2021/06/20 06:00:50;;;;;;;;;;;16.80;99.90;;;;;;5092656;28;19908;-73
2021/06/20 06:03:16;;;;;;;;;;;16.80;99.90;;;;;;5093097;28;19914;-73
2021/06/20 06:05:41;;;;;;;;;;;16.90;99.90;;;;;;5093115;28;19908;-73
2021/06/20 06:08:07;;;;;;;;;;;16.90;99.90;;;;;;5092413;28;20033;-73
2021/06/20 06:10:32;;;;;;;;;;;17.00;99.90;;;;;;5092984;28;19912;-73
2021/06/20 06:12:58;;;;;;;;;;;17.00;99.90;;;;;;5093201;28;20289;-73
2021/06/20 06:15:24;;;;;;;;;;;17.00;99.90;;;;;;5092443;28;19953;-73
2021/06/20 06:17:50;;;;;;;;;;;17.00;99.90;;;;;;5092873;28;19916;-73
2021/06/20 06:20:16;;;;;;;;;;;17.00;99.90;;;;;;5092583;28;19956;-72
2021/06/20 06:22:41;;;;;;;;;;;17.00;99.90;;;;;;5093071;28;19967;-74
2021/06/20 06:25:07;;;;;;;;;;;17.00;99.90;;;;;;5093069;28;20042;-73
2021/06/20 06:27:32;;;;;;;;;;;16.90;99.90;;;;;;5092298;28;19919;-72
2021/06/20 06:29:58;;;;;;;;;;;16.90;99.90;;;;;;5093100;28;20233;-72
2021/06/20 06:32:23;;;;;;;;;;;16.90;99.90;;;;;;5093083;28;20245;-73
2021/06/20 06:34:49;;;;;;;;;;;16.90;99.90;;;;;;5092096;28;20072;-73
2021/06/20 06:37:14;;;;;;;;;;;17.00;99.90;;;;;;5092536;28;19920;-73
2021/06/20 06:39:41;;;;;;;;;;;17.20;99.90;;;;;;5092992;28;19908;-73
2021/06/20 06:42:07;;;;;;;;;;;17.40;99.90;;;;;;5091943;28;19908;-73
2021/06/20 06:44:33;;;;;;;;;;;17.50;99.90;;;;;;5092983;28;20257;-74
2021/06/20 06:46:58;;;;;;;;;;;17.60;99.90;;;;;;5092968;28;19998;-73
2021/06/20 06:49:24;;;;;;;;;;;17.70;99.90;;;;;;5092190;28;19916;-73
2021/06/20 06:51:50;;;;;;;;;;;17.70;99.90;;;;;;5092682;28;19908;-74
2021/06/20 06:54:17;;;;;;;;;;;17.80;99.90;;;;;;5092863;28;19908;-74
2021/06/20 06:56:43;;;;;;;;;;;17.80;99.90;;;;;;5091861;28;19985;-74
2021/06/20 06:59:08;;;;;;;;;;;17.90;99.90;;;;;;5092649;28;19908;-74
2021/06/20 07:01:33;;;;;;;;;;;18.10;99.90;;;;;;5093369;28;19912;-74
2021/06/20 07:03:59;;;;;;;;;;;18.20;99.90;;;;;;5095947;28;19915;-73
2021/06/20 07:06:24;;;;;;;;;;;18.30;99.90;;;;;;5096531;28;19916;-73
2021/06/20 07:08:50;;;;;;;;;;;18.50;99.90;;;;;;5096527;28;19908;-72
2021/06/20 07:11:15;;;;;;;;;;;18.60;99.90;;;;;;5095581;28;19931;-73
2021/06/20 07:13:41;;;;;;;;;;;18.70;99.90;;;;;;5096488;28;19995;-74
2021/06/20 07:16:06;;;;;;;;;;;18.80;99.90;;;;;;5096207;28;19970;-75
2021/06/20 07:18:32;;;;;;;;;;;18.90;99.90;;;;;;5095774;28;19916;-73
2021/06/20 07:20:59;;;;;;;;;;;18.90;99.90;;;;;;5096234;28;19908;-74
2021/06/20 07:23:25;;;;;;;;;;;19.00;99.90;;;;;;5096409;28;19916;-73
2021/06/20 07:25:50;;;;;;;;;;;19.00;99.90;;;;;;5095417;28;19908;-72
2021/06/20 07:28:16;;;;;;;;;;;19.00;99.90;;;;;;5096084;28;19915;-74
2021/06/20 07:30:41;;;;;;;;;;;19.00;99.90;;;;;;5095614;28;19908;-74
2021/06/20 07:33:08;;;;;;;;;;;19.00;99.90;;;;;;5096102;28;19908;-74
2021/06/20 07:35:33;;;;;;;;;;;19.00;99.90;;;;;;5095981;28;19995;-73
2021/06/20 07:37:59;;;;;;;;;;;19.00;99.90;;;;;;5094896;28;20061;-73
2021/06/20 07:40:24;;;;;;;;;;;19.10;99.90;;;;;;5095867;28;19908;-73
2021/06/20 07:42:50;;;;;;;;;;;19.30;99.90;;;;;;5095888;28;19915;-73
2021/06/20 07:45:16;;;;;;;;;;;19.50;99.90;;;;;;5095148;28;19931;-73
2021/06/20 07:47:42;;;;;;;;;;;19.70;99.90;;;;;;5095749;28;19916;-73
2021/06/20 07:50:09;;;;;;;;;;;19.70;99.90;;;;;;5095838;28;19908;-73
2021/06/20 07:52:35;;;;;;;;;;;19.70;99.90;;;;;;5094840;28;19908;-73
2021/06/20 07:55:01;;;;;;;;;;;19.70;99.90;;;;;;5095629;28;19915;-73
2021/06/20 07:57:27;;;;;;;;;;;19.70;99.90;;;;;;5095477;28;20015;-74
2021/06/20 07:59:52;;;;;;;;;;;19.70;99.90;;;;;;5094911;28;20333;-74
2021/06/20 08:02:18;;;;;;;;;;;19.80;99.90;;;;;;5095466;28;19933;-73
2021/06/20 08:04:44;;;;;;;;;;;19.90;99.90;;;;;;5095549;28;19919;-73
2021/06/20 08:07:09;;;;;;;;;;;19.90;99.90;;;;;;5094665;28;19995;-74
2021/06/20 08:09:35;;;;;;;;;;;20.00;99.90;;;;;;5095316;28;19908;-73
2021/06/20 08:12:01;;;;;;;;;;;20.20;99.90;;;;;;5095097;28;19908;-73
2021/06/20 08:14:26;;;;;;;;;;;20.40;99.90;;;;;;5093575;28;19908;-73
2021/06/20 08:16:52;;;;;;;;;;;20.40;99.90;;;;;;5095293;28;19927;-73
2021/06/20 08:19:18;;;;;;;;;;;20.50;99.90;;;;;;5095409;28;19999;-73
2021/06/20 08:21:44;;;;;;;;;;;20.40;99.90;;;;;;5094282;28;20370;-73
2021/06/20 08:24:10;;;;;;;;;;;20.40;99.90;;;;;;5095110;28;19908;-73
2021/06/20 08:26:36;;;;;;;;;;;20.30;99.90;;;;;;5095085;28;19916;-73
2021/06/20 08:29:01;;;;;;;;;;;20.30;99.90;;;;;;5094401;28;19912;-73
2021/06/20 08:31:27;;;;;;;;;;;20.30;99.90;;;;;;5094951;28;19908;-73
2021/06/20 08:33:52;;;;;;;;;;;20.40;99.90;;;;;;5094594;28;19912;-72
2021/06/20 08:36:18;;;;;;;;;;;20.40;99.90;;;;;;5094614;28;19967;-73
2021/06/20 08:38:43;;;;;;;;;;;20.40;99.90;;;;;;5094446;28;19932;-73
2021/06/20 08:41:12;;;;;;;;;;;20.50;99.90;;;;;;5094114;28;19992;-73
2021/06/20 08:43:37;;;;;;;;;;;20.60;99.90;;;;;;5094566;28;19961;-74
2021/06/20 08:46:03;;;;;;;;;;;20.70;99.90;;;;;;5094869;28;19908;-71
2021/06/20 08:48:28;;;;;;;;;;;20.90;99.90;;;;;;5093770;28;19931;-73
2021/06/20 08:50:54;;;;;;;;;;;21.00;99.90;;;;;;5094717;28;19908;-73
2021/06/20 08:53:20;;;;;;;;;;;21.10;99.90;;;;;;5094559;28;19908;-73
2021/06/20 08:55:46;;;;;;;;;;;21.30;99.90;;;;;;5092236;28;19953;-73
2021/06/20 08:58:20;;;;;;;;;;;21.50;99.90;;;;;;5094344;28;19908;-73
2021/06/20 09:00:46;;;;;;;;;;;21.60;99.90;;;;;;5094264;28;19908;-72
2021/06/20 09:03:11;;;;;;;;;;;21.80;99.90;;;;;;5093782;28;19916;-72
2021/06/20 09:05:37;;;;;;;;;;;21.90;99.90;;;;;;5094107;28;19908;-73
2021/06/20 09:08:12;;;;;;;;;;;22.10;99.90;;;;;;5094347;28;20287;-73
2021/06/20 09:10:37;;;;;;;;;;;22.10;99.90;;;;;;5093616;28;20003;-72
2021/06/20 09:13:05;;;;;;;;;;;22.20;99.90;;;;;;5094077;28;20248;-73
2021/06/20 09:15:32;;;;;;;;;;;22.30;99.90;;;;;;5094033;28;19908;-73
2021/06/20 09:18:01;;;;;;;;;;;22.40;99.90;;;;;;5093385;28;19920;-73
2021/06/20 09:20:37;;;;;;;;;;;22.50;99.90;;;;;;5093920;28;20003;-72
2021/06/20 09:23:08;;;;;;;;;;;22.50;99.90;;;;;;5093838;28;20397;-72
2021/06/20 09:25:34;;;;;;;;;;;22.60;99.90;;;;;;5093887;28;20015;-73
2021/06/20 09:28:00;;;;;;;;;;;22.60;99.90;;;;;;5093829;28;19955;-72
2021/06/20 09:30:27;;;;;;;;;;;22.60;99.90;;;;;;5093269;28;19908;-72
2021/06/20 09:32:53;;;;;;;;;;;22.70;99.90;;;;;;5093822;28;19912;-72
2021/06/20 09:35:19;;;;;;;;;;;22.70;99.90;;;;;;5093750;28;19908;-73
2021/06/20 09:37:51;;;;;;;;;;;22.80;99.90;;;;;;5092674;28;19927;-73
2021/06/20 09:40:17;;;;;;;;;;;22.90;99.90;;;;;;5093831;28;19908;-72
2021/06/20 09:42:42;;;;;;;;;;;22.90;99.90;;;;;;5093785;28;19934;-73
2021/06/20 09:45:08;;;;;;;;;;;22.90;99.90;;;;;;5092791;28;19908;-73
2021/06/20 09:47:37;;;;;;;;;;;23.00;99.90;;;;;;5093818;28;19912;-73
2021/06/20 09:50:03;;;;;;;;;;;23.10;99.90;;;;;;5093558;28;19912;-73
2021/06/20 09:52:30;;;;;;;;;;;23.30;99.90;;;;;;5092537;28;19908;-72
2021/06/20 09:54:56;;;;;;;;;;;23.30;99.90;;;;;;5093447;28;19908;-72
2021/06/20 09:57:22;;;;;;;;;;;23.40;99.90;;;;;;5093328;28;20372;-73
2021/06/20 09:59:54;;;;;;;;;;;23.60;99.90;;;;;;5092470;28;19943;-72
2021/06/20 10:02:23;;;;;;;;;;;23.70;99.90;;;;;;5093051;28;20273;-72
2021/06/20 10:04:48;;;;;;;;;;;23.90;99.90;;;;;;5093305;28;19908;-72
2021/06/20 10:07:13;;;;;;;;;;;24.10;99.90;;;;;;5092459;28;19915;-73
2021/06/20 10:09:39;;;;;;;;;;;24.20;99.90;;;;;;5093136;28;19915;-73
2021/06/20 10:12:05;;;;;;;;;;;24.30;99.90;;;;;;5093359;28;19962;-72
2021/06/20 10:14:32;;;;;;;;;;;24.20;99.90;;;;;;5092476;28;19908;-72
2021/06/20 10:17:08;;;;;;;;;;;24.00;99.90;;;;;;5093083;28;19934;-72
2021/06/20 10:19:34;;;;;;;;;;;24.00;99.90;;;;;;5092670;28;19965;-72
2021/06/20 10:22:01;;;;;;;;;;;23.90;99.90;;;;;;5093215;28;19912;-72
2021/06/20 10:24:27;;;;;;;;;;;23.80;99.90;;;;;;5093357;28;19916;-73
2021/06/20 10:26:57;;;;;;;;;;;23.70;99.90;;;;;;5092273;28;19919;-73
2021/06/20 10:29:24;;;;;;;;;;;23.60;99.90;;;;;;5093117;28;20283;-72
2021/06/20 10:31:51;;;;;;;;;;;23.50;99.90;;;;;;5093151;28;19953;-72
2021/06/20 10:34:19;;;;;;;;;;;23.40;99.90;;;;;;5092322;28;19908;-73
2021/06/20 10:36:45;;;;;;;;;;;23.50;99.90;;;;;;5093626;28;19943;-72
2021/06/20 10:39:12;;;;;;;;;;;23.50;99.90;;;;;;5096868;28;19927;-71
2021/06/20 10:41:37;;;;;;;;;;;23.50;99.90;;;;;;5096065;28;19908;-72
2021/06/20 10:44:03;;;;;;;;;;;23.70;99.90;;;;;;5096969;28;19909;-72
2021/06/20 10:46:29;;;;;;;;;;;23.90;99.90;;;;;;5097109;28;19916;-72
2021/06/20 10:48:54;;;;;;;;;;;24.10;99.90;;;;;;5096066;28;20357;-72
2021/06/20 10:51:22;;;;;;;;;;;24.40;99.90;;;;;;5096782;28;19954;-72
2021/06/20 10:53:48;;;;;;;;;;;24.60;99.90;;;;;;5096512;28;19969;-72
2021/06/20 10:56:20;;;;;;;;;;;24.80;99.90;;;;;;5095506;28;19916;-72
2021/06/20 10:58:51;;;;;;;;;;;24.70;99.90;;;;;;5096529;28;19920;-73
2021/06/20 11:01:17;;;;;;;;;;;24.40;99.90;;;;;;5096419;28;19908;-71
2021/06/20 11:04:01;;;;;;;;;;;24.20;99.90;;;;;;5095622;28;19916;-72
2021/06/20 11:06:26;;;;;;;;;;;24.10;99.90;;;;;;5096407;28;20267;-72
2021/06/20 11:08:52;;;;;;;;;;;24.00;99.90;;;;;;5095354;28;19915;-72
2021/06/20 11:11:17;;;;;;;;;;;23.90;99.90;;;;;;5096183;28;20325;-72
2021/06/20 11:13:47;;;;;;;;;;;23.80;99.90;;;;;;5096024;28;20304;-72
2021/06/20 11:16:21;;;;;;;;;;;23.70;99.90;;;;;;5095167;28;19916;-72
2021/06/20 11:18:47;;;;;;;;;;;23.70;99.90;;;;;;5095944;28;19973;-72
2021/06/20 11:21:12;;;;;;;;;;;23.80;99.90;;;;;;5095862;28;19912;-71
2021/06/20 11:23:40;;;;;;;;;;;23.70;99.90;;;;;;5095392;28;19908;-72
2021/06/20 11:26:06;;;;;;;;;;;23.80;99.90;;;;;;5096297;28;19908;-72
2021/06/20 11:28:31;;;;;;;;;;;23.80;99.90;;;;;;5096206;28;19908;-72
2021/06/20 11:31:04;;;;;;;;;;;23.90;99.90;;;;;;5095185;28;19947;-72
2021/06/20 11:33:29;;;;;;;;;;;24.00;99.90;;;;;;5095762;28;19908;-72
2021/06/20 11:35:55;;;;;;;;;;;24.10;99.90;;;;;;5095605;28;20257;-72
2021/06/20 11:38:27;;;;;;;;;;;24.10;99.90;;;;;;5094838;28;20007;-72
2021/06/20 11:40:53;;;;;;;;;;;24.10;99.90;;;;;;5095761;28;20286;-71
2021/06/20 11:43:18;;;;;;;;;;;24.10;99.90;;;;;;5095623;28;19916;-72
2021/06/20 11:45:44;;;;;;;;;;;24.20;99.90;;;;;;5094921;28;19908;-72
2021/06/20 11:48:09;;;;;;;;;;;24.30;99.90;;;;;;5094057;28;19908;-72
2021/06/20 11:50:36;;;;;;;;;;;24.40;99.60;;;;;;5095509;28;19908;-72
2021/06/20 11:53:03;;;;;;;;;;;24.50;99.90;;;;;;5094571;28;19912;-72
2021/06/20 11:55:32;;;;;;;;;;;24.80;99.80;;;;;;5095575;28;19908;-72
2021/06/20 11:58:08;;;;;;;;;;;24.80;98.40;;;;;;5094613;28;20109;-71
2021/06/20 12:00:34;;;;;;;;;;;24.80;98.80;;;;;;5095330;28;19912;-72
2021/06/20 12:03:00;;;;;;;;;;;24.80;99.20;;;;;;5095320;28;19912;-72
2021/06/20 12:05:26;;;;;;;;;;;24.80;98.50;;;;;;5094259;28;20263;-72
2021/06/20 12:07:53;;;;;;;;;;;24.80;98.20;;;;;;5095088;28;19908;-72
2021/06/20 12:10:19;;;;;;;;;;;24.90;98.80;;;;;;5094847;28;19919;-72
2021/06/20 12:12:45;;;;;;;;;;;25.00;98.60;;;;;;5094118;28;19908;-72
2021/06/20 12:15:12;;;;;;;;;;;25.10;98.10;;;;;;5094713;28;19914;-72
2021/06/20 12:17:38;;;;;;;;;;;25.20;98.80;;;;;;5094959;28;19916;-72
2021/06/20 12:20:04;;;;;;;;;;;25.40;98.20;;;;;;5094325;28;20307;-72
2021/06/20 12:22:29;;;;;;;;;;;25.50;97.20;;;;;;5094811;28;19961;-71
2021/06/20 12:24:57;;;;;;;;;;;25.40;98.80;;;;;;5094964;28;19908;-72
2021/06/20 12:27:33;;;;;;;;;;;25.40;99.30;;;;;;5092885;28;19912;-72
2021/06/20 12:30:14;;;;;;;;;;;25.30;99.90;;;;;;5094844;28;19908;-72
2021/06/20 12:32:39;;;;;;;;;;;25.40;99.90;;;;;;5094811;28;20352;-71
2021/06/20 12:35:05;;;;;;;;;;;25.50;99.90;;;;;;5094175;28;19918;-71
2021/06/20 12:37:38;;;;;;;;;;;25.60;99.90;;;;;;5094473;28;19920;-72
2021/06/20 12:40:08;;;;;;;;;;;25.60;99.60;;;;;;5094034;28;19946;-72
2021/06/20 12:42:42;;;;;;;;;;;25.60;99.40;;;;;;5093288;28;19916;-72
2021/06/20 12:45:16;;;;;;;;;;;25.70;99.20;;;;;;5094865;28;19909;-72
2021/06/20 12:47:42;;;;;;;;;;;25.80;98.70;;;;;;5093853;28;19908;-72
2021/06/20 12:50:08;;;;;;;;;;;25.80;97.90;;;;;;5094590;28;19915;-72
2021/06/20 12:52:36;;;;;;;;;;;25.80;98.30;;;;;;5094511;28;19919;-73
2021/06/20 12:55:13;;;;;;;;;;;26.00;98.60;;;;;;5093789;28;19912;-72
2021/06/20 12:57:48;;;;;;;;;;;26.20;97.90;;;;;;5094874;28;19924;-72
2021/06/20 13:00:13;;;;;;;;;;;26.30;97.00;;;;;;5094099;28;19912;-72
2021/06/20 13:02:40;;;;;;;;;;;26.30;96.80;;;;;;5093092;28;20453;-72
2021/06/20 13:05:06;;;;;;;;;;;26.30;97.40;;;;;;5094040;28;19947;-72
2021/06/20 13:07:32;;;;;;;;;;;26.40;97.00;;;;;;5094166;28;19908;-73
2021/06/20 13:09:58;;;;;;;;;;;26.30;96.80;;;;;;5093555;28;19909;-72
2021/06/20 13:12:23;;;;;;;;;;;26.10;96.40;;;;;;5094361;28;19999;-72
2021/06/20 13:14:49;;;;;;;;;;;25.90;97.30;;;;;;5094569;28;20352;-72
2021/06/20 13:17:14;;;;;;;;;;;25.90;97.50;;;;;;5093341;28;19939;-72
2021/06/20 13:19:40;;;;;;;;;;;25.90;97.10;;;;;;5094187;28;19908;-71
2021/06/20 13:22:05;;;;;;;;;;;26.00;97.20;;;;;;5094059;28;19954;-72
2021/06/20 13:24:31;;;;;;;;;;;26.10;96.90;;;;;;5093189;28;19931;-72
2021/06/20 13:26:57;;;;;;;;;;;26.10;97.40;;;;;;5093787;28;19958;-71
2021/06/20 13:29:23;;;;;;;;;;;26.10;97.00;;;;;;5093341;28;19912;-71
2021/06/20 13:31:49;;;;;;;;;;;26.00;97.00;;;;;;5093963;28;19915;-71
2021/06/20 13:34:14;;;;;;;;;;;25.80;96.70;;;;;;5093696;28;19912;-72
2021/06/20 13:36:40;;;;;;;;;;;25.50;98.30;;;;;;5092820;28;20448;-71
2021/06/20 13:39:06;;;;;;;;;;;25.50;99.30;;;;;;5092630;28;21989;-71
2021/06/20 13:41:32;;;;;;;;;;;25.30;98.90;;;;;;5093835;28;19912;-71
2021/06/20 13:43:59;;;;;;;;;;;25.00;98.90;;;;;;5093014;28;19928;-71
2021/06/20 13:46:25;;;;;;;;;;;24.90;99.70;;;;;;5093616;28;19908;-71
2021/06/20 13:48:50;;;;;;;;;;;24.70;99.20;;;;;;5093697;28;19915;-72
2021/06/20 13:51:16;;;;;;;;;;;24.60;99.90;;;;;;5092732;28;19915;-72
2021/06/20 13:53:41;;;;;;;;;;;24.60;99.30;;;;;;5093663;28;19915;-72
2021/06/20 13:56:07;;;;;;;;;;;24.60;99.90;;;;;;5093343;28;20007;-72
2021/06/20 13:58:32;;;;;;;;;;;24.80;99.30;;;;;;5092622;28;19923;-71
2021/06/20 14:00:58;;;;;;;;;;;24.90;98.50;;;;;;5093400;28;19962;-71
2021/06/20 14:03:23;;;;;;;;;;;25.10;99.20;;;;;;5093404;28;19908;-71
2021/06/20 14:05:48;;;;;;;;;;;25.20;99.00;;;;;;5092501;28;19961;-71
2021/06/20 14:08:14;;;;;;;;;;;25.30;99.30;;;;;;5093083;28;20268;-72
2021/06/20 14:10:39;;;;;;;;;;;25.40;98.90;;;;;;5092939;28;19908;-72